sensor_id;sensor_type;location;lat;lon;timestamp;P1;durP1;ratioP1;P2;durP2;ratioP2
15603;SDS011;7902;49.042;9.092;2022-08-19T00:01:28;25.87;;;10.80;;
15603;SDS011;7902;49.042;9.092;2022-08-19T00:03:58;25.17;;;10.80;;
15603;SDS011;7902;49.042;9.092;2022-08-19T00:06:27;31.53;;;10.60;;
15603;SDS011;7902;49.042;9.092;2022-08-19T00:08:55;28.03;;;10.50;;
15603;SDS011;7902;49.042;9.092;2022-08-19T00:11:23;31.47;;;10.23;;
15603;SDS011;7902;49.042;9.092;2022-08-19T00:13:49;27.17;;;10.07;;
15603;SDS011;7902;49.042;9.092;2022-08-19T00:16:16;30.97;;;11.20;;
15603;SDS011;7902;49.042;9.092;2022-08-19T00:18:46;27.47;;;10.57;;
15603;SDS011;7902;49.042;9.092;2022-08-19T00:21:13;25.43;;;10.60;;
15603;SDS011;7902;49.042;9.092;2022-08-19T00:23:40;26.67;;;11.13;;
15603;SDS011;7902;49.042;9.092;2022-08-19T00:26:06;27.87;;;11.90;;
15603;SDS011;7902;49.042;9.092;2022-08-19T00:28:33;30.40;;;10.87;;
15603;SDS011;7902;49.042;9.092;2022-08-19T00:31:04;39.37;;;10.37;;
15603;SDS011;7902;49.042;9.092;2022-08-19T00:33:32;26.30;;;11.10;;
15603;SDS011;7902;49.042;9.092;2022-08-19T00:36:02;29.17;;;11.60;;
15603;SDS011;7902;49.042;9.092;2022-08-19T00:38:30;29.20;;;11.50;;
15603;SDS011;7902;49.042;9.092;2022-08-19T00:40:57;26.73;;;11.33;;
15603;SDS011;7902;49.042;9.092;2022-08-19T00:43:25;28.70;;;11.07;;
15603;SDS011;7902;49.042;9.092;2022-08-19T00:45:52;26.77;;;11.50;;
15603;SDS011;7902;49.042;9.092;2022-08-19T00:48:19;27.50;;;11.40;;
15603;SDS011;7902;49.042;9.092;2022-08-19T00:50:46;31.63;;;12.77;;
15603;SDS011;7902;49.042;9.092;2022-08-19T00:53:15;37.40;;;11.70;;
15603;SDS011;7902;49.042;9.092;2022-08-19T00:55:46;29.80;;;12.23;;
15603;SDS011;7902;49.042;9.092;2022-08-19T00:58:15;24.80;;;10.80;;
15603;SDS011;7902;49.042;9.092;2022-08-19T01:00:45;28.87;;;11.13;;
15603;SDS011;7902;49.042;9.092;2022-08-19T01:03:14;26.77;;;11.50;;
15603;SDS011;7902;49.042;9.092;2022-08-19T01:05:42;27.90;;;11.37;;
15603;SDS011;7902;49.042;9.092;2022-08-19T01:08:09;29.37;;;11.70;;
15603;SDS011;7902;49.042;9.092;2022-08-19T01:10:41;29.13;;;10.63;;
15603;SDS011;7902;49.042;9.092;2022-08-19T01:13:14;27.70;;;12.67;;
15603;SDS011;7902;49.042;9.092;2022-08-19T01:15:46;26.27;;;11.40;;
15603;SDS011;7902;49.042;9.092;2022-08-19T01:18:17;30.43;;;12.47;;
15603;SDS011;7902;49.042;9.092;2022-08-19T01:20:45;32.67;;;12.80;;
15603;SDS011;7902;49.042;9.092;2022-08-19T01:23:11;36.80;;;13.50;;
15603;SDS011;7902;49.042;9.092;2022-08-19T01:25:44;36.00;;;12.17;;
15603;SDS011;7902;49.042;9.092;2022-08-19T01:28:25;32.50;;;12.97;;
15603;SDS011;7902;49.042;9.092;2022-08-19T01:30:53;29.07;;;11.87;;
15603;SDS011;7902;49.042;9.092;2022-08-19T01:33:19;29.77;;;11.70;;
15603;SDS011;7902;49.042;9.092;2022-08-19T01:35:46;33.17;;;12.77;;
15603;SDS011;7902;49.042;9.092;2022-08-19T01:38:22;29.33;;;12.83;;
15603;SDS011;7902;49.042;9.092;2022-08-19T01:40:50;33.73;;;13.10;;
15603;SDS011;7902;49.042;9.092;2022-08-19T01:43:16;33.10;;;12.57;;
15603;SDS011;7902;49.042;9.092;2022-08-19T01:45:44;32.57;;;13.23;;
15603;SDS011;7902;49.042;9.092;2022-08-19T01:48:11;31.13;;;13.37;;
15603;SDS011;7902;49.042;9.092;2022-08-19T01:50:37;31.90;;;12.13;;
15603;SDS011;7902;49.042;9.092;2022-08-19T01:53:05;28.53;;;12.30;;
15603;SDS011;7902;49.042;9.092;2022-08-19T01:55:34;30.70;;;13.07;;
15603;SDS011;7902;49.042;9.092;2022-08-19T01:58:02;32.50;;;13.30;;
15603;SDS011;7902;49.042;9.092;2022-08-19T02:00:30;30.97;;;13.43;;
15603;SDS011;7902;49.042;9.092;2022-08-19T02:02:57;31.30;;;14.27;;
15603;SDS011;7902;49.042;9.092;2022-08-19T02:05:23;32.33;;;13.70;;
15603;SDS011;7902;49.042;9.092;2022-08-19T02:07:49;38.93;;;13.67;;
15603;SDS011;7902;49.042;9.092;2022-08-19T02:10:20;33.23;;;13.07;;
15603;SDS011;7902;49.042;9.092;2022-08-19T02:12:47;32.90;;;14.07;;
15603;SDS011;7902;49.042;9.092;2022-08-19T02:15:15;33.97;;;15.00;;
15603;SDS011;7902;49.042;9.092;2022-08-19T02:17:41;34.43;;;14.90;;
15603;SDS011;7902;49.042;9.092;2022-08-19T02:20:07;34.30;;;15.00;;
15603;SDS011;7902;49.042;9.092;2022-08-19T02:22:34;32.40;;;14.70;;
15603;SDS011;7902;49.042;9.092;2022-08-19T02:25:00;33.67;;;14.90;;
15603;SDS011;7902;49.042;9.092;2022-08-19T02:27:26;36.43;;;15.00;;
15603;SDS011;7902;49.042;9.092;2022-08-19T02:29:53;39.00;;;14.93;;
15603;SDS011;7902;49.042;9.092;2022-08-19T02:32:19;35.30;;;15.20;;
15603;SDS011;7902;49.042;9.092;2022-08-19T02:34:46;34.23;;;15.40;;
15603;SDS011;7902;49.042;9.092;2022-08-19T02:37:13;40.97;;;15.50;;
15603;SDS011;7902;49.042;9.092;2022-08-19T02:39:58;41.37;;;17.10;;
15603;SDS011;7902;49.042;9.092;2022-08-19T02:42:24;38.40;;;15.30;;
15603;SDS011;7902;49.042;9.092;2022-08-19T02:44:50;35.17;;;15.97;;
15603;SDS011;7902;49.042;9.092;2022-08-19T02:47:17;33.50;;;14.53;;
15603;SDS011;7902;49.042;9.092;2022-08-19T02:49:44;41.73;;;15.80;;
15603;SDS011;7902;49.042;9.092;2022-08-19T02:52:11;36.80;;;15.00;;
15603;SDS011;7902;49.042;9.092;2022-08-19T02:54:37;34.33;;;16.00;;
15603;SDS011;7902;49.042;9.092;2022-08-19T02:57:04;34.17;;;15.70;;
15603;SDS011;7902;49.042;9.092;2022-08-19T02:59:31;35.47;;;16.50;;
15603;SDS011;7902;49.042;9.092;2022-08-19T03:01:58;34.60;;;15.77;;
15603;SDS011;7902;49.042;9.092;2022-08-19T03:04:23;37.47;;;16.40;;
15603;SDS011;7902;49.042;9.092;2022-08-19T03:06:50;37.60;;;16.13;;
15603;SDS011;7902;49.042;9.092;2022-08-19T03:09:17;42.03;;;17.50;;
15603;SDS011;7902;49.042;9.092;2022-08-19T03:11:45;43.87;;;17.70;;
15603;SDS011;7902;49.042;9.092;2022-08-19T03:14:12;36.40;;;17.43;;
15603;SDS011;7902;49.042;9.092;2022-08-19T03:16:42;35.70;;;16.73;;
15603;SDS011;7902;49.042;9.092;2022-08-19T03:19:11;41.90;;;17.60;;
15603;SDS011;7902;49.042;9.092;2022-08-19T03:21:37;37.60;;;17.20;;
15603;SDS011;7902;49.042;9.092;2022-08-19T03:24:05;36.50;;;16.97;;
15603;SDS011;7902;49.042;9.092;2022-08-19T03:26:34;40.77;;;18.87;;
15603;SDS011;7902;49.042;9.092;2022-08-19T03:29:04;36.80;;;17.73;;
15603;SDS011;7902;49.042;9.092;2022-08-19T03:31:30;42.73;;;18.37;;
15603;SDS011;7902;49.042;9.092;2022-08-19T03:33:56;38.07;;;19.10;;
15603;SDS011;7902;49.042;9.092;2022-08-19T03:36:23;48.73;;;18.00;;
15603;SDS011;7902;49.042;9.092;2022-08-19T03:38:52;37.73;;;17.73;;
15603;SDS011;7902;49.042;9.092;2022-08-19T03:41:22;39.47;;;18.87;;
15603;SDS011;7902;49.042;9.092;2022-08-19T03:43:58;35.90;;;17.00;;
15603;SDS011;7902;49.042;9.092;2022-08-19T03:46:26;36.30;;;18.47;;
15603;SDS011;7902;49.042;9.092;2022-08-19T03:48:56;38.73;;;17.83;;
15603;SDS011;7902;49.042;9.092;2022-08-19T03:51:25;38.93;;;20.17;;
15603;SDS011;7902;49.042;9.092;2022-08-19T03:53:53;39.77;;;19.70;;
15603;SDS011;7902;49.042;9.092;2022-08-19T03:56:21;37.83;;;19.10;;
15603;SDS011;7902;49.042;9.092;2022-08-19T03:58:47;38.83;;;19.70;;
15603;SDS011;7902;49.042;9.092;2022-08-19T04:01:15;36.83;;;19.97;;
15603;SDS011;7902;49.042;9.092;2022-08-19T04:03:44;52.60;;;20.70;;
15603;SDS011;7902;49.042;9.092;2022-08-19T04:08:49;37.53;;;18.87;;
15603;SDS011;7902;49.042;9.092;2022-08-19T04:11:19;41.73;;;19.07;;
15603;SDS011;7902;49.042;9.092;2022-08-19T04:13:50;39.00;;;19.33;;
15603;SDS011;7902;49.042;9.092;2022-08-19T04:16:20;37.73;;;18.87;;
15603;SDS011;7902;49.042;9.092;2022-08-19T04:18:47;44.53;;;20.17;;
15603;SDS011;7902;49.042;9.092;2022-08-19T04:21:18;39.83;;;18.63;;
15603;SDS011;7902;49.042;9.092;2022-08-19T04:23:49;38.47;;;18.53;;
15603;SDS011;7902;49.042;9.092;2022-08-19T04:26:29;44.70;;;20.40;;
15603;SDS011;7902;49.042;9.092;2022-08-19T04:29:00;38.00;;;19.60;;
15603;SDS011;7902;49.042;9.092;2022-08-19T04:31:28;35.93;;;18.50;;
15603;SDS011;7902;49.042;9.092;2022-08-19T04:33:57;39.40;;;20.07;;
15603;SDS011;7902;49.042;9.092;2022-08-19T04:36:33;43.33;;;21.30;;
15603;SDS011;7902;49.042;9.092;2022-08-19T04:39:03;38.33;;;18.03;;
15603;SDS011;7902;49.042;9.092;2022-08-19T04:41:31;39.97;;;18.90;;
15603;SDS011;7902;49.042;9.092;2022-08-19T04:44:16;43.87;;;20.17;;
15603;SDS011;7902;49.042;9.092;2022-08-19T04:46:44;46.57;;;21.47;;
15603;SDS011;7902;49.042;9.092;2022-08-19T04:49:12;37.07;;;18.80;;
15603;SDS011;7902;49.042;9.092;2022-08-19T04:51:39;44.63;;;19.00;;
15603;SDS011;7902;49.042;9.092;2022-08-19T04:54:08;39.43;;;18.77;;
15603;SDS011;7902;49.042;9.092;2022-08-19T04:56:34;39.43;;;19.00;;
15603;SDS011;7902;49.042;9.092;2022-08-19T04:59:00;38.30;;;19.27;;
15603;SDS011;7902;49.042;9.092;2022-08-19T05:01:30;40.07;;;19.53;;
15603;SDS011;7902;49.042;9.092;2022-08-19T05:03:59;38.67;;;18.90;;
15603;SDS011;7902;49.042;9.092;2022-08-19T05:06:26;34.73;;;18.13;;
15603;SDS011;7902;49.042;9.092;2022-08-19T05:08:54;38.00;;;19.50;;
15603;SDS011;7902;49.042;9.092;2022-08-19T05:11:27;38.70;;;18.93;;
15603;SDS011;7902;49.042;9.092;2022-08-19T05:13:54;53.40;;;20.60;;
15603;SDS011;7902;49.042;9.092;2022-08-19T05:16:21;42.10;;;18.87;;
15603;SDS011;7902;49.042;9.092;2022-08-19T05:18:49;40.00;;;19.87;;
15603;SDS011;7902;49.042;9.092;2022-08-19T05:21:33;36.20;;;18.20;;
15603;SDS011;7902;49.042;9.092;2022-08-19T05:24:20;36.53;;;17.73;;
15603;SDS011;7902;49.042;9.092;2022-08-19T05:26:48;42.50;;;20.47;;
15603;SDS011;7902;49.042;9.092;2022-08-19T05:29:16;40.43;;;18.53;;
15603;SDS011;7902;49.042;9.092;2022-08-19T05:31:45;37.53;;;19.77;;
15603;SDS011;7902;49.042;9.092;2022-08-19T05:34:15;38.33;;;20.50;;
15603;SDS011;7902;49.042;9.092;2022-08-19T05:36:43;42.23;;;19.83;;
15603;SDS011;7902;49.042;9.092;2022-08-19T05:39:11;47.93;;;20.27;;
15603;SDS011;7902;49.042;9.092;2022-08-19T05:42:03;41.00;;;19.60;;
15603;SDS011;7902;49.042;9.092;2022-08-19T05:44:30;37.87;;;18.30;;
15603;SDS011;7902;49.042;9.092;2022-08-19T05:47:01;42.53;;;17.60;;
15603;SDS011;7902;49.042;9.092;2022-08-19T05:49:30;37.53;;;18.70;;
15603;SDS011;7902;49.042;9.092;2022-08-19T05:51:57;40.00;;;19.30;;
15603;SDS011;7902;49.042;9.092;2022-08-19T05:54:25;66.40;;;19.50;;
15603;SDS011;7902;49.042;9.092;2022-08-19T05:56:51;41.03;;;19.87;;
15603;SDS011;7902;49.042;9.092;2022-08-19T05:59:19;37.90;;;19.90;;
15603;SDS011;7902;49.042;9.092;2022-08-19T06:01:47;39.50;;;19.57;;
15603;SDS011;7902;49.042;9.092;2022-08-19T06:04:18;40.53;;;18.53;;
15603;SDS011;7902;49.042;9.092;2022-08-19T06:06:45;39.00;;;19.23;;
15603;SDS011;7902;49.042;9.092;2022-08-19T06:09:15;37.60;;;17.83;;
15603;SDS011;7902;49.042;9.092;2022-08-19T06:11:42;38.63;;;19.07;;
15603;SDS011;7902;49.042;9.092;2022-08-19T06:14:13;47.73;;;19.70;;
15603;SDS011;7902;49.042;9.092;2022-08-19T06:16:41;42.77;;;19.90;;
15603;SDS011;7902;49.042;9.092;2022-08-19T06:19:09;41.63;;;18.37;;
15603;SDS011;7902;49.042;9.092;2022-08-19T06:21:38;39.53;;;18.70;;
15603;SDS011;7902;49.042;9.092;2022-08-19T06:24:06;38.83;;;18.80;;
15603;SDS011;7902;49.042;9.092;2022-08-19T06:26:35;39.20;;;17.33;;
15603;SDS011;7902;49.042;9.092;2022-08-19T06:29:03;46.60;;;18.60;;
15603;SDS011;7902;49.042;9.092;2022-08-19T06:31:32;38.77;;;19.83;;
15603;SDS011;7902;49.042;9.092;2022-08-19T06:34:00;36.60;;;17.50;;
15603;SDS011;7902;49.042;9.092;2022-08-19T06:36:33;40.33;;;18.00;;
15603;SDS011;7902;49.042;9.092;2022-08-19T06:39:06;41.10;;;18.70;;
15603;SDS011;7902;49.042;9.092;2022-08-19T06:41:35;36.07;;;18.80;;
15603;SDS011;7902;49.042;9.092;2022-08-19T06:44:03;56.87;;;19.33;;
15603;SDS011;7902;49.042;9.092;2022-08-19T06:46:29;38.40;;;17.40;;
15603;SDS011;7902;49.042;9.092;2022-08-19T06:48:56;38.40;;;17.60;;
15603;SDS011;7902;49.042;9.092;2022-08-19T06:51:23;37.50;;;17.77;;
15603;SDS011;7902;49.042;9.092;2022-08-19T06:53:50;36.93;;;18.47;;
15603;SDS011;7902;49.042;9.092;2022-08-19T06:56:19;36.90;;;17.93;;
15603;SDS011;7902;49.042;9.092;2022-08-19T06:58:47;39.63;;;17.83;;
15603;SDS011;7902;49.042;9.092;2022-08-19T07:01:16;38.83;;;17.83;;
15603;SDS011;7902;49.042;9.092;2022-08-19T07:03:42;38.67;;;17.43;;
15603;SDS011;7902;49.042;9.092;2022-08-19T07:06:09;38.57;;;17.23;;
15603;SDS011;7902;49.042;9.092;2022-08-19T07:08:38;48.80;;;17.70;;
15603;SDS011;7902;49.042;9.092;2022-08-19T07:11:06;37.10;;;17.67;;
15603;SDS011;7902;49.042;9.092;2022-08-19T07:13:33;38.03;;;17.00;;
15603;SDS011;7902;49.042;9.092;2022-08-19T07:16:04;41.27;;;15.97;;
15603;SDS011;7902;49.042;9.092;2022-08-19T07:18:31;34.37;;;16.17;;
15603;SDS011;7902;49.042;9.092;2022-08-19T07:21:07;35.20;;;17.13;;
15603;SDS011;7902;49.042;9.092;2022-08-19T07:23:36;35.10;;;16.37;;
15603;SDS011;7902;49.042;9.092;2022-08-19T07:26:11;31.70;;;16.40;;
15603;SDS011;7902;49.042;9.092;2022-08-19T07:28:45;35.30;;;16.43;;
15603;SDS011;7902;49.042;9.092;2022-08-19T07:31:18;32.53;;;15.63;;
15603;SDS011;7902;49.042;9.092;2022-08-19T07:33:47;32.00;;;15.60;;
15603;SDS011;7902;49.042;9.092;2022-08-19T07:36:16;37.93;;;16.50;;
15603;SDS011;7902;49.042;9.092;2022-08-19T07:38:45;31.73;;;15.17;;
15603;SDS011;7902;49.042;9.092;2022-08-19T07:41:16;40.03;;;15.70;;
15603;SDS011;7902;49.042;9.092;2022-08-19T07:43:45;34.20;;;14.70;;
15603;SDS011;7902;49.042;9.092;2022-08-19T07:46:12;32.50;;;15.37;;
15603;SDS011;7902;49.042;9.092;2022-08-19T07:48:39;31.20;;;14.10;;
15603;SDS011;7902;49.042;9.092;2022-08-19T07:51:08;35.50;;;14.57;;
15603;SDS011;7902;49.042;9.092;2022-08-19T07:53:36;29.67;;;14.53;;
15603;SDS011;7902;49.042;9.092;2022-08-19T07:56:04;30.60;;;14.80;;
15603;SDS011;7902;49.042;9.092;2022-08-19T07:58:32;31.17;;;14.60;;
15603;SDS011;7902;49.042;9.092;2022-08-19T08:01:00;33.30;;;13.23;;
15603;SDS011;7902;49.042;9.092;2022-08-19T08:03:27;40.30;;;14.00;;
15603;SDS011;7902;49.042;9.092;2022-08-19T08:06:13;30.67;;;13.63;;
15603;SDS011;7902;49.042;9.092;2022-08-19T08:08:58;37.13;;;14.43;;
15603;SDS011;7902;49.042;9.092;2022-08-19T08:11:39;33.90;;;14.20;;
15603;SDS011;7902;49.042;9.092;2022-08-19T08:14:16;35.17;;;13.93;;
15603;SDS011;7902;49.042;9.092;2022-08-19T08:16:44;32.10;;;14.20;;
15603;SDS011;7902;49.042;9.092;2022-08-19T08:19:11;34.57;;;13.77;;
15603;SDS011;7902;49.042;9.092;2022-08-19T08:21:40;31.17;;;12.57;;
15603;SDS011;7902;49.042;9.092;2022-08-19T08:24:07;28.13;;;12.50;;
15603;SDS011;7902;49.042;9.092;2022-08-19T08:26:32;31.73;;;13.27;;
15603;SDS011;7902;49.042;9.092;2022-08-19T08:28:58;32.00;;;12.17;;
15603;SDS011;7902;49.042;9.092;2022-08-19T08:31:24;34.90;;;12.80;;
15603;SDS011;7902;49.042;9.092;2022-08-19T08:33:50;31.90;;;12.90;;
15603;SDS011;7902;49.042;9.092;2022-08-19T08:36:16;34.13;;;12.53;;
15603;SDS011;7902;49.042;9.092;2022-08-19T08:38:43;30.37;;;12.53;;
15603;SDS011;7902;49.042;9.092;2022-08-19T08:41:16;35.43;;;13.07;;
15603;SDS011;7902;49.042;9.092;2022-08-19T08:43:49;26.27;;;11.80;;
15603;SDS011;7902;49.042;9.092;2022-08-19T08:46:30;26.90;;;12.67;;
15603;SDS011;7902;49.042;9.092;2022-08-19T08:51:59;30.63;;;12.00;;
15603;SDS011;7902;49.042;9.092;2022-08-19T08:54:30;32.53;;;13.30;;
15603;SDS011;7902;49.042;9.092;2022-08-19T08:57:00;33.70;;;11.60;;
15603;SDS011;7902;49.042;9.092;2022-08-19T08:59:30;26.73;;;11.20;;
15603;SDS011;7902;49.042;9.092;2022-08-19T09:02:00;33.70;;;11.07;;
15603;SDS011;7902;49.042;9.092;2022-08-19T09:04:26;35.60;;;11.30;;
15603;SDS011;7902;49.042;9.092;2022-08-19T09:06:55;42.30;;;10.53;;
15603;SDS011;7902;49.042;9.092;2022-08-19T09:09:27;33.13;;;10.87;;
15603;SDS011;7902;49.042;9.092;2022-08-19T09:12:04;33.53;;;10.83;;
15603;SDS011;7902;49.042;9.092;2022-08-19T09:17:16;29.53;;;10.23;;
15603;SDS011;7902;49.042;9.092;2022-08-19T09:19:49;28.30;;;11.10;;
15603;SDS011;7902;49.042;9.092;2022-08-19T09:22:36;41.23;;;10.33;;
15603;SDS011;7902;49.042;9.092;2022-08-19T09:25:04;36.10;;;11.80;;
15603;SDS011;7902;49.042;9.092;2022-08-19T09:27:31;54.97;;;11.30;;
15603;SDS011;7902;49.042;9.092;2022-08-19T09:29:57;35.73;;;10.90;;
15603;SDS011;7902;49.042;9.092;2022-08-19T09:32:23;26.00;;;9.00;;
15603;SDS011;7902;49.042;9.092;2022-08-19T09:34:51;27.03;;;8.63;;
15603;SDS011;7902;49.042;9.092;2022-08-19T09:37:20;27.33;;;8.53;;
15603;SDS011;7902;49.042;9.092;2022-08-19T09:39:47;31.00;;;9.35;;
15603;SDS011;7902;49.042;9.092;2022-08-19T09:42:13;34.90;;;8.93;;
15603;SDS011;7902;49.042;9.092;2022-08-19T09:44:40;26.73;;;8.33;;
15603;SDS011;7902;49.042;9.092;2022-08-19T09:47:07;26.70;;;7.70;;
15603;SDS011;7902;49.042;9.092;2022-08-19T09:49:34;23.15;;;7.10;;
15603;SDS011;7902;49.042;9.092;2022-08-19T09:52:00;28.75;;;9.20;;
15603;SDS011;7902;49.042;9.092;2022-08-19T09:54:27;23.60;;;7.17;;
15603;SDS011;7902;49.042;9.092;2022-08-19T09:56:54;29.20;;;6.88;;
15603;SDS011;7902;49.042;9.092;2022-08-19T09:59:21;26.65;;;7.20;;
15603;SDS011;7902;49.042;9.092;2022-08-19T10:01:47;24.73;;;7.03;;
15603;SDS011;7902;49.042;9.092;2022-08-19T10:04:13;24.00;;;6.10;;
15603;SDS011;7902;49.042;9.092;2022-08-19T10:06:39;18.23;;;5.70;;
15603;SDS011;7902;49.042;9.092;2022-08-19T10:09:06;25.83;;;5.85;;
15603;SDS011;7902;49.042;9.092;2022-08-19T10:11:33;23.35;;;5.03;;
15603;SDS011;7902;49.042;9.092;2022-08-19T10:14:01;25.13;;;5.50;;
15603;SDS011;7902;49.042;9.092;2022-08-19T10:16:27;21.83;;;4.47;;
15603;SDS011;7902;49.042;9.092;2022-08-19T10:18:54;21.30;;;4.95;;
15603;SDS011;7902;49.042;9.092;2022-08-19T10:21:21;22.77;;;5.38;;
15603;SDS011;7902;49.042;9.092;2022-08-19T10:23:50;22.08;;;5.28;;
15603;SDS011;7902;49.042;9.092;2022-08-19T10:26:22;22.92;;;5.85;;
15603;SDS011;7902;49.042;9.092;2022-08-19T10:28:51;23.05;;;6.38;;
15603;SDS011;7902;49.042;9.092;2022-08-19T10:31:19;18.38;;;4.78;;
15603;SDS011;7902;49.042;9.092;2022-08-19T10:33:48;28.67;;;5.95;;
15603;SDS011;7902;49.042;9.092;2022-08-19T10:36:17;27.38;;;5.85;;
15603;SDS011;7902;49.042;9.092;2022-08-19T10:38:46;25.20;;;5.35;;
15603;SDS011;7902;49.042;9.092;2022-08-19T10:41:20;23.67;;;6.28;;
15603;SDS011;7902;49.042;9.092;2022-08-19T10:43:52;43.00;;;7.03;;
15603;SDS011;7902;49.042;9.092;2022-08-19T10:46:20;22.38;;;5.82;;
15603;SDS011;7902;49.042;9.092;2022-08-19T10:48:47;26.17;;;6.32;;
15603;SDS011;7902;49.042;9.092;2022-08-19T10:51:14;28.20;;;6.53;;
15603;SDS011;7902;49.042;9.092;2022-08-19T10:54:00;24.08;;;5.60;;
15603;SDS011;7902;49.042;9.092;2022-08-19T10:56:27;27.48;;;5.60;;
15603;SDS011;7902;49.042;9.092;2022-08-19T10:59:13;43.58;;;5.93;;
15603;SDS011;7902;49.042;9.092;2022-08-19T11:01:40;21.58;;;5.97;;
15603;SDS011;7902;49.042;9.092;2022-08-19T11:04:09;30.73;;;6.40;;
15603;SDS011;7902;49.042;9.092;2022-08-19T11:06:36;18.60;;;5.25;;
15603;SDS011;7902;49.042;9.092;2022-08-19T11:09:04;21.83;;;5.72;;
15603;SDS011;7902;49.042;9.092;2022-08-19T11:11:31;24.00;;;5.68;;
15603;SDS011;7902;49.042;9.092;2022-08-19T11:14:12;20.75;;;5.47;;
15603;SDS011;7902;49.042;9.092;2022-08-19T11:16:39;24.33;;;6.85;;
15603;SDS011;7902;49.042;9.092;2022-08-19T11:19:07;21.90;;;6.13;;
15603;SDS011;7902;49.042;9.092;2022-08-19T11:21:35;25.48;;;6.53;;
15603;SDS011;7902;49.042;9.092;2022-08-19T11:24:05;25.08;;;7.72;;
15603;SDS011;7902;49.042;9.092;2022-08-19T11:26:33;21.58;;;6.40;;
15603;SDS011;7902;49.042;9.092;2022-08-19T11:29:00;28.45;;;7.28;;
15603;SDS011;7902;49.042;9.092;2022-08-19T11:31:28;29.73;;;7.00;;
15603;SDS011;7902;49.042;9.092;2022-08-19T11:34:00;21.98;;;6.78;;
15603;SDS011;7902;49.042;9.092;2022-08-19T11:36:28;22.20;;;6.53;;
15603;SDS011;7902;49.042;9.092;2022-08-19T11:38:55;21.85;;;6.18;;
15603;SDS011;7902;49.042;9.092;2022-08-19T11:41:22;23.33;;;6.63;;
15603;SDS011;7902;49.042;9.092;2022-08-19T11:43:49;28.52;;;5.80;;
15603;SDS011;7902;49.042;9.092;2022-08-19T11:46:17;23.50;;;5.93;;
15603;SDS011;7902;49.042;9.092;2022-08-19T11:48:43;25.88;;;5.90;;
15603;SDS011;7902;49.042;9.092;2022-08-19T11:51:11;19.83;;;5.72;;
15603;SDS011;7902;49.042;9.092;2022-08-19T11:53:39;20.95;;;5.88;;
15603;SDS011;7902;49.042;9.092;2022-08-19T11:56:05;23.48;;;5.47;;
15603;SDS011;7902;49.042;9.092;2022-08-19T11:58:32;23.50;;;5.55;;
15603;SDS011;7902;49.042;9.092;2022-08-19T12:00:59;21.77;;;5.75;;
15603;SDS011;7902;49.042;9.092;2022-08-19T12:03:25;21.48;;;5.13;;
15603;SDS011;7902;49.042;9.092;2022-08-19T12:05:51;18.02;;;4.20;;
15603;SDS011;7902;49.042;9.092;2022-08-19T12:08:17;18.27;;;4.80;;
15603;SDS011;7902;49.042;9.092;2022-08-19T12:10:44;21.98;;;5.22;;
15603;SDS011;7902;49.042;9.092;2022-08-19T12:13:11;21.70;;;4.70;;
15603;SDS011;7902;49.042;9.092;2022-08-19T12:15:44;19.20;;;4.65;;
15603;SDS011;7902;49.042;9.092;2022-08-19T12:18:11;26.85;;;5.80;;
15603;SDS011;7902;49.042;9.092;2022-08-19T12:20:39;18.10;;;4.97;;
15603;SDS011;7902;49.042;9.092;2022-08-19T12:23:07;18.45;;;4.60;;
15603;SDS011;7902;49.042;9.092;2022-08-19T12:25:38;21.70;;;5.10;;
15603;SDS011;7902;49.042;9.092;2022-08-19T12:28:15;26.98;;;5.55;;
15603;SDS011;7902;49.042;9.092;2022-08-19T12:30:42;19.20;;;5.47;;
15603;SDS011;7902;49.042;9.092;2022-08-19T12:33:08;24.25;;;5.60;;
15603;SDS011;7902;49.042;9.092;2022-08-19T12:35:34;21.95;;;5.45;;
15603;SDS011;7902;49.042;9.092;2022-08-19T12:38:00;21.83;;;5.95;;
15603;SDS011;7902;49.042;9.092;2022-08-19T12:40:28;18.77;;;5.43;;
15603;SDS011;7902;49.042;9.092;2022-08-19T12:42:54;27.08;;;6.13;;
15603;SDS011;7902;49.042;9.092;2022-08-19T12:45:20;22.75;;;6.45;;
15603;SDS011;7902;49.042;9.092;2022-08-19T12:47:47;20.95;;;5.18;;
15603;SDS011;7902;49.042;9.092;2022-08-19T12:50:13;19.77;;;5.28;;
15603;SDS011;7902;49.042;9.092;2022-08-19T12:52:39;21.98;;;6.40;;
15603;SDS011;7902;49.042;9.092;2022-08-19T12:55:08;21.15;;;6.32;;
15603;SDS011;7902;49.042;9.092;2022-08-19T12:57:34;18.55;;;5.63;;
15603;SDS011;7902;49.042;9.092;2022-08-19T13:00:08;17.85;;;5.40;;
15603;SDS011;7902;49.042;9.092;2022-08-19T13:02:39;19.65;;;5.60;;
15603;SDS011;7902;49.042;9.092;2022-08-19T13:05:08;26.92;;;5.95;;
15603;SDS011;7902;49.042;9.092;2022-08-19T13:07:36;20.13;;;6.00;;
15603;SDS011;7902;49.042;9.092;2022-08-19T13:10:05;20.45;;;5.30;;
15603;SDS011;7902;49.042;9.092;2022-08-19T13:12:32;19.40;;;5.53;;
15603;SDS011;7902;49.042;9.092;2022-08-19T13:14:58;22.25;;;6.43;;
15603;SDS011;7902;49.042;9.092;2022-08-19T13:17:24;19.23;;;5.20;;
15603;SDS011;7902;49.042;9.092;2022-08-19T13:19:50;18.30;;;5.97;;
15603;SDS011;7902;49.042;9.092;2022-08-19T13:22:16;21.67;;;6.05;;
15603;SDS011;7902;49.042;9.092;2022-08-19T13:24:43;18.60;;;5.50;;
15603;SDS011;7902;49.042;9.092;2022-08-19T13:27:09;19.10;;;5.63;;
15603;SDS011;7902;49.042;9.092;2022-08-19T13:29:34;19.77;;;5.63;;
15603;SDS011;7902;49.042;9.092;2022-08-19T13:32:19;21.70;;;5.43;;
15603;SDS011;7902;49.042;9.092;2022-08-19T13:35:03;24.98;;;5.35;;
15603;SDS011;7902;49.042;9.092;2022-08-19T13:37:29;19.27;;;5.25;;
15603;SDS011;7902;49.042;9.092;2022-08-19T13:40:10;18.80;;;5.10;;
15603;SDS011;7902;49.042;9.092;2022-08-19T13:42:45;19.63;;;5.30;;
15603;SDS011;7902;49.042;9.092;2022-08-19T13:45:13;19.45;;;5.20;;
15603;SDS011;7902;49.042;9.092;2022-08-19T13:47:41;20.90;;;5.20;;
15603;SDS011;7902;49.042;9.092;2022-08-19T13:50:10;24.48;;;4.90;;
15603;SDS011;7902;49.042;9.092;2022-08-19T13:52:38;23.60;;;4.60;;
15603;SDS011;7902;49.042;9.092;2022-08-19T13:55:05;18.85;;;4.38;;
15603;SDS011;7902;49.042;9.092;2022-08-19T13:57:32;19.25;;;4.03;;
15603;SDS011;7902;49.042;9.092;2022-08-19T13:59:59;20.60;;;4.45;;
15603;SDS011;7902;49.042;9.092;2022-08-19T14:02:25;17.73;;;3.95;;
15603;SDS011;7902;49.042;9.092;2022-08-19T14:04:52;18.20;;;4.10;;
15603;SDS011;7902;49.042;9.092;2022-08-19T14:07:18;19.73;;;4.50;;
15603;SDS011;7902;49.042;9.092;2022-08-19T14:09:44;17.60;;;4.28;;
15603;SDS011;7902;49.042;9.092;2022-08-19T14:12:10;30.90;;;4.68;;
15603;SDS011;7902;49.042;9.092;2022-08-19T14:14:36;20.23;;;4.38;;
15603;SDS011;7902;49.042;9.092;2022-08-19T14:17:07;20.30;;;3.90;;
15603;SDS011;7902;49.042;9.092;2022-08-19T14:19:33;21.02;;;4.10;;
15603;SDS011;7902;49.042;9.092;2022-08-19T14:21:59;26.08;;;4.30;;
15603;SDS011;7902;49.042;9.092;2022-08-19T14:24:25;20.25;;;4.40;;
15603;SDS011;7902;49.042;9.092;2022-08-19T14:26:51;20.40;;;4.40;;
15603;SDS011;7902;49.042;9.092;2022-08-19T14:29:17;19.55;;;5.03;;
15603;SDS011;7902;49.042;9.092;2022-08-19T14:31:43;19.90;;;4.32;;
15603;SDS011;7902;49.042;9.092;2022-08-19T14:34:09;20.58;;;3.83;;
15603;SDS011;7902;49.042;9.092;2022-08-19T14:36:36;18.33;;;4.13;;
15603;SDS011;7902;49.042;9.092;2022-08-19T14:39:03;17.48;;;4.43;;
15603;SDS011;7902;49.042;9.092;2022-08-19T14:41:29;21.52;;;4.05;;
15603;SDS011;7902;49.042;9.092;2022-08-19T14:43:56;18.35;;;3.78;;
15603;SDS011;7902;49.042;9.092;2022-08-19T14:46:24;18.50;;;3.60;;
15603;SDS011;7902;49.042;9.092;2022-08-19T14:48:52;18.70;;;3.70;;
15603;SDS011;7902;49.042;9.092;2022-08-19T14:51:18;17.42;;;3.72;;
15603;SDS011;7902;49.042;9.092;2022-08-19T14:53:45;16.77;;;3.65;;
15603;SDS011;7902;49.042;9.092;2022-08-19T14:56:15;19.20;;;3.95;;